Airfield :
LOGIN :

Register | Disclaimer

   EN    FR    IT 

 










Legend :    VFR   Marginal VFR   IFR   Intensive IFR   Very Intensive IFR
Visi :
Ceiling :
>= 8 km
>= 3000ft
5 to 8 km
1000 to 3000 ft
1500m to 5 km
500 to 1000 ft
800 to 1500m
200 to 500 ft
< 800m
< 200 ft
Symbols :   Thunderstorms  Fog  Heavy snow  Heavy precipitations  Wind > 20 kt
SIGMETs :     Misc.  Thunderstorms  Icing  Turbulence  Mountain Waves  Volcanic Ashes







- Airport Elevation : 587 ft
- IATA code : XCR
- Download approach charts


LFOK - Chalons Vatry

CURRENT METAR :
  • 241730Z AUTO 05008KT 6000 NSC 10/07 Q1024 NOSIG

EXPIRED METARs :
  • 241700Z AUTO 07009KT 6000 NSC 11/07 Q1024 NOSIG
  • 241630Z AUTO 06010KT 7000 NSC 11/07 Q1023 NOSIG
  • 241600Z AUTO 05013KT 7000 FEW022 11/07 Q1023 NOSIG
  • 241530Z AUTO 05013KT 7000 BKN022 BKN220 11/07 Q1023 NOSIG
  • 241500Z AUTO 06012KT 7000 OVC021 11/07 Q1024 NOSIG

TAF TAF LFOK
Valid from the 24 at 18:00 until the 25 at 18:00 UTC


241700Z 2418/2518 05012KT 9999 BKN020
TEMPO 2509/2518 06018G28KT
No reported NOTAMs for that airfield.



MET'MAP, your aeronautical weather chart ! - Copyright ORBIFLY December 2007 - Disclaimer

ORBIFLY MET'MAP TEAM :

Programming & Development : Alexandra Zaïnal
Concept & Development : Baudouin d'Aumeries
Co-Development & Prog : Marc-Olivier Méhu
Technical & hardware support : Manuel Goepfert

Contact : metmap@orbifly.com




SOURCES & CREDITS :

   NOAA